Time;durP1;ratioP1;P1;durP2;ratioP2;P2;SDS_P1;SDS_P2;PMS_P1;PMS_P2;Temp;Humidity;BMP_temperature;BMP_pressure;BME280_temperature;BME280_humidity;BME280_pressure;Samples;Min_cycle;Max_cycle;Signal;HPM_P1;HPM_P2
2022/08/18 00:00:05;;;;;;;6.10;3.97;;;;;;;24.37;51.19;99103.97;348436;28;1549;-65
2022/08/18 00:00:21;;;;;;;5.75;4.03;;;;;;;24.38;51.36;99105.66;348916;28;1070;-66
2022/08/18 00:00:34;;;;;;;4.78;4.00;;;;;;;24.41;50.95;99115.97;347776;28;1643;-66
2022/08/18 00:00:47;;;;;;;6.03;4.35;;;;;;;24.35;51.61;99109.44;347774;28;1534;-66
2022/08/18 00:00:59;;;;;;;7.68;4.38;;;;;;;24.38;51.39;99110.97;347039;28;1530;-66
2022/08/18 00:01:13;;;;;;;7.03;4.00;;;;;;;24.37;51.22;99104.81;346197;28;1240;-66
2022/08/18 00:01:28;;;;;;;4.20;3.80;;;;;;;24.41;50.90;99108.00;347849;28;1103;-66
2022/08/18 00:01:46;;;;;;;4.97;4.13;;;;;;;24.45;50.93;99109.38;347601;28;1223;-66
2022/08/18 00:02:16;;;;;;;6.60;4.28;;;;;;;24.49;50.94;99110.75;347100;28;1329;-66
2022/08/18 00:02:29;;;;;;;4.35;3.85;;;;;;;24.53;50.93;99114.81;345923;28;2182;-66
2022/08/18 00:02:42;;;;;;;4.47;4.07;;;;;;;24.56;50.75;99117.13;345342;28;1661;-66
2022/08/18 00:03:11;;;;;;;4.68;3.85;;;;;;;24.59;50.64;99118.63;345784;28;1054;-66
2022/08/18 00:03:44;;;;;;;6.15;3.80;;;;;;;24.59;51.15;99118.63;346397;28;1446;-66
2022/08/18 00:04:14;;;;;;;4.30;3.65;;;;;;;24.63;50.80;99120.00;346486;28;1676;-66
2022/08/18 00:04:46;;;;;;;4.40;4.00;;;;;;;24.66;50.52;99120.53;347613;28;2569;-66
2022/08/18 00:05:00;;;;;;;4.72;3.72;;;;;;;24.67;50.39;99132.84;348815;28;1407;-66
2022/08/18 00:05:12;;;;;;;7.13;3.70;;;;;;;24.67;50.62;99124.88;350456;28;1057;-66
2022/08/18 00:05:25;;;;;;;6.93;3.90;;;;;;;24.68;50.63;99126.53;348105;28;1972;-66
2022/08/18 00:05:38;;;;;;;6.40;3.83;;;;;;;24.67;50.60;99127.53;348981;28;1724;-67
2022/08/18 00:05:50;;;;;;;6.15;3.83;;;;;;;24.67;50.33;99127.53;348362;28;1771;-66
2022/08/18 00:06:02;;;;;;;4.65;3.80;;;;;;;24.65;51.00;99134.84;347849;28;1509;-66
2022/08/18 00:06:16;;;;;;;5.05;4.00;;;;;;;24.66;51.19;99135.66;348187;28;1323;-66
2022/08/18 00:06:28;;;;;;;5.75;4.00;;;;;;;24.64;51.02;99133.16;348468;28;2140;-66
2022/08/18 00:06:41;;;;;;;5.18;3.97;;;;;;;24.65;51.12;99131.31;349371;28;1097;-66
2022/08/18 00:06:53;;;;;;;5.60;4.05;;;;;;;24.65;51.72;99126.84;347322;28;2274;-66
2022/08/18 00:07:11;;;;;;;5.13;4.00;;;;;;;24.67;51.18;99132.84;347380;28;1464;-66
2022/08/18 00:07:31;;;;;;;4.22;3.80;;;;;;;24.70;50.97;99129.03;347323;28;2024;-66
2022/08/18 00:07:43;;;;;;;5.00;3.85;;;;;;;24.71;50.78;99131.56;347455;28;1462;-66
2022/08/18 00:07:58;;;;;;;5.90;4.15;;;;;;;24.72;50.88;99132.38;347498;28;1485;-67
2022/08/18 00:08:10;;;;;;;6.13;4.07;;;;;;;24.73;50.72;99131.41;349328;28;1275;-66
2022/08/18 00:08:23;;;;;;;5.60;3.90;;;;;;;24.72;50.73;99133.22;349302;28;1104;-66
2022/08/18 00:08:34;;;;;;;5.78;3.85;;;;;;;24.74;50.70;99133.06;347363;28;1801;-66
2022/08/18 00:08:49;;;;;;;6.47;3.97;;;;;;;24.76;50.73;99138.22;347498;28;2187;-66
2022/08/18 00:09:06;;;;;;;6.20;3.88;;;;;;;24.77;50.85;99131.91;348720;28;1144;-66
2022/08/18 00:09:18;;;;;;;4.63;3.90;;;;;;;24.76;50.87;99131.09;348830;28;1872;-66
2022/08/18 00:09:33;;;;;;;4.57;3.88;;;;;;;24.77;50.81;99131.91;348943;28;1571;-66
2022/08/18 00:09:46;;;;;;;4.50;3.78;;;;;;;24.76;50.87;99140.91;348394;28;1801;-66
2022/08/18 00:09:59;;;;;;;4.20;3.70;;;;;;;24.76;50.97;99136.41;348761;28;1549;-66
2022/08/18 00:10:11;;;;;;;4.50;3.65;;;;;;;24.78;51.00;99138.91;349632;28;1358;-66
2022/08/18 00:10:31;;;;;;;5.93;3.67;;;;;;;24.76;51.05;99136.41;348882;28;1065;-66
2022/08/18 00:10:43;;;;;;;5.63;3.70;;;;;;;24.77;50.84;99135.44;348787;28;1589;-67
2022/08/18 00:10:57;;;;;;;4.05;3.58;;;;;;;24.78;50.88;99131.78;348610;28;1713;-66
2022/08/18 00:11:09;;;;;;;4.45;3.75;;;;;;;24.77;50.63;99137.22;348661;28;1233;-66
2022/08/18 00:11:22;;;;;;;5.03;4.00;;;;;;;24.77;50.58;99143.41;348718;28;1030;-66
2022/08/18 00:11:41;;;;;;;5.05;3.97;;;;;;;24.79;50.37;99140.56;347221;28;1066;-66
2022/08/18 00:11:53;;;;;;;5.30;3.80;;;;;;;24.79;50.54;99143.22;347362;28;1789;-66
2022/08/18 00:12:13;;;;;;;5.18;3.90;;;;;;;24.80;50.51;99142.25;348471;28;1664;-66
2022/08/18 00:12:32;;;;;;;4.32;3.80;;;;;;;24.80;50.85;99136.94;349223;28;1025;-66
2022/08/18 00:12:45;;;;;;;5.45;3.78;;;;;;;24.80;50.88;99144.91;347022;28;1779;-66
2022/08/18 00:12:57;;;;;;;6.15;3.92;;;;;;;24.81;51.10;99143.91;347466;28;1706;-66
2022/08/18 00:13:12;;;;;;;5.47;3.80;;;;;;;24.81;51.03;99143.91;346566;28;1442;-66
2022/08/18 00:13:24;;;;;;;5.13;3.70;;;;;;;24.83;51.07;99147.25;346365;28;1067;-66
2022/08/18 00:13:36;;;;;;;4.57;3.85;;;;;;;24.83;50.99;99141.94;346496;28;1208;-66
2022/08/18 00:13:48;;;;;;;4.78;3.95;;;;;;;24.83;51.12;99142.78;346450;28;1702;-66
2022/08/18 00:14:00;;;;;;;4.72;3.88;;;;;;;24.84;50.78;99144.44;347509;28;1856;-66
2022/08/18 00:14:16;;;;;;;4.60;3.90;;;;;;;24.84;50.79;99138.31;347399;28;1283;-66
2022/08/18 00:14:34;;;;;;;5.25;4.00;;;;;;;24.84;50.89;99143.63;347873;28;1412;-66
2022/08/18 00:14:46;;;;;;;5.13;4.00;;;;;;;24.85;50.91;99147.94;347125;28;1752;-66
2022/08/18 00:15:02;;;;;;;4.45;4.05;;;;;;;24.84;50.90;99138.31;346624;28;1654;-66
2022/08/18 00:15:16;;;;;;;5.13;4.00;;;;;;;24.83;50.86;99142.78;348245;28;1774;-66
2022/08/18 00:15:28;;;;;;;5.35;4.10;;;;;;;24.83;51.00;99147.25;348889;28;1062;-67
2022/08/18 00:15:40;;;;;;;4.47;4.03;;;;;;;24.83;50.82;99147.25;348978;28;1258;-66
2022/08/18 00:16:00;;;;;;;4.80;4.07;;;;;;;24.84;50.99;99148.94;347674;28;1678;-66
2022/08/18 00:16:12;;;;;;;4.80;4.15;;;;;;;24.85;50.86;99147.94;346527;28;1090;-66
2022/08/18 00:16:24;;;;;;;4.43;4.00;;;;;;;24.85;51.08;99150.59;345000;28;1202;-66
2022/08/18 00:16:36;;;;;;;4.95;4.00;;;;;;;24.85;50.99;99155.91;344272;28;2024;-66
2022/08/18 00:16:50;;;;;;;4.78;4.10;;;;;;;24.86;50.69;99141.63;344197;28;1889;-66
2022/08/18 00:17:02;;;;;;;4.47;3.88;;;;;;;24.85;50.72;99147.94;344291;28;1427;-66
2022/08/18 00:17:15;;;;;;;4.25;3.75;;;;;;;24.87;50.88;99156.59;344925;28;1059;-66
2022/08/18 00:17:27;;;;;;;4.95;3.90;;;;;;;24.84;51.44;99148.94;343797;28;1787;-66
2022/08/18 00:17:39;;;;;;;5.07;4.00;;;;;;;24.84;51.41;99149.75;345884;28;1976;-66
2022/08/18 00:17:51;;;;;;;6.20;4.20;;;;;;;24.85;51.51;99150.59;344024;28;1913;-66
2022/08/18 00:18:03;;;;;;;6.45;4.15;;;;;;;24.84;51.26;99148.94;345929;28;1444;-66
2022/08/18 00:18:16;;;;;;;5.57;3.92;;;;;;;24.86;51.38;99154.94;346135;28;1175;-66
2022/08/18 00:18:28;;;;;;;4.47;4.07;;;;;;;24.85;51.17;99147.94;346316;28;1081;-66
2022/08/18 00:18:40;;;;;;;4.50;4.07;;;;;;;24.85;51.20;99155.91;346583;28;1019;-66
2022/08/18 00:18:51;;;;;;;6.30;4.20;;;;;;;24.84;51.14;99152.41;346887;28;1761;-66
2022/08/18 00:19:04;;;;;;;7.00;4.20;;;;;;;24.84;51.06;99155.06;347851;28;1426;-66
2022/08/18 00:19:22;;;;;;;6.53;4.13;;;;;;;24.84;51.12;99154.25;348832;28;1431;-66
2022/08/18 00:19:54;;;;;;;6.32;3.97;;;;;;;24.82;51.02;99157.06;347147;28;1756;-66
2022/08/18 00:20:10;;;;;;;5.97;4.28;;;;;;;24.82;51.02;99151.75;347660;28;1645;-66
2022/08/18 00:20:23;;;;;;;4.85;4.15;;;;;;;24.83;51.16;99163.19;348115;28;1050;-66
2022/08/18 00:20:35;;;;;;;5.88;3.90;;;;;;;24.81;51.08;99154.53;348984;28;1054;-66
2022/08/18 00:20:47;;;;;;;6.47;3.97;;;;;;;24.82;51.02;99162.38;347899;28;1698;-66
2022/08/18 00:21:01;;;;;;;6.47;4.18;;;;;;;24.84;50.78;99162.22;347181;28;1422;-66
2022/08/18 00:21:13;;;;;;;4.88;4.07;;;;;;;24.84;50.78;99156.91;346099;28;1041;-66
2022/08/18 00:21:25;;;;;;;4.90;4.10;;;;;;;24.83;50.72;99160.53;346506;28;1074;-66
2022/08/18 00:21:38;;;;;;;4.55;4.10;;;;;;;24.83;51.07;99157.88;346030;28;1238;-66
2022/08/18 00:21:50;;;;;;;4.88;3.92;;;;;;;24.84;50.93;99162.22;346354;28;1849;-66
2022/08/18 00:22:02;;;;;;;4.57;3.80;;;;;;;24.84;51.21;99167.53;345792;28;1497;-66
2022/08/18 00:22:17;;;;;;;4.30;3.90;;;;;;;24.84;51.20;99167.53;349008;28;1153;-66
2022/08/18 00:22:29;;;;;;;5.20;4.03;;;;;;;24.85;50.99;99171.84;349038;28;1280;-65
2022/08/18 00:22:41;;;;;;;5.47;3.90;;;;;;;24.82;51.16;99167.69;347554;28;1718;-66
2022/08/18 00:22:55;;;;;;;5.07;4.00;;;;;;;24.81;51.09;99166.03;346900;28;1627;-66
2022/08/18 00:23:08;;;;;;;6.63;4.10;;;;;;;24.82;51.12;99166.84;348452;28;1370;-66
2022/08/18 00:23:20;;;;;;;6.82;4.00;;;;;;;24.81;51.16;99166.03;348791;28;1181;-66
2022/08/18 00:23:32;;;;;;;6.05;3.88;;;;;;;24.82;51.17;99165.03;348002;28;1476;-66
2022/08/18 00:23:44;;;;;;;5.65;4.00;;;;;;;24.81;51.23;99170.50;347397;28;1102;-66
2022/08/18 00:23:56;;;;;;;6.30;4.05;;;;;;;24.82;51.20;99169.50;347497;28;1545;-66
2022/08/18 00:24:08;;;;;;;6.47;4.10;;;;;;;24.82;50.99;99166.84;347582;28;1026;-66
2022/08/18 00:24:20;;;;;;;5.10;4.10;;;;;;;24.80;51.08;99168.84;347084;28;1662;-66
2022/08/18 00:24:32;;;;;;;5.28;4.22;;;;;;;24.79;51.00;99167.16;348059;28;1062;-65
2022/08/18 00:24:50;;;;;;;4.90;4.10;;;;;;;24.79;51.32;99169.81;347618;28;1513;-66
2022/08/18 00:25:03;;;;;;;4.38;3.97;;;;;;;24.78;50.82;99168.97;347498;28;1415;-66
2022/08/18 00:25:17;;;;;;;5.45;4.30;;;;;;;24.77;50.91;99169.13;349250;28;1018;-66
2022/08/18 00:25:29;;;;;;;6.85;4.43;;;;;;;24.77;51.09;99174.44;349250;28;1168;-66
2022/08/18 00:25:41;;;;;;;5.63;4.03;;;;;;;24.77;50.94;99174.44;349224;28;1013;-66
2022/08/18 00:25:54;;;;;;;7.40;3.90;;;;;;;24.77;51.06;99171.78;346970;28;1850;-66
2022/08/18 00:26:06;;;;;;;6.97;4.00;;;;;;;24.78;51.22;99176.97;347710;28;1652;-66
2022/08/18 00:26:18;;;;;;;5.22;4.00;;;;;;;24.77;51.06;99169.13;347647;28;1676;-65
2022/08/18 00:26:30;;;;;;;4.35;3.97;;;;;;;24.78;50.97;99171.63;348312;28;1694;-66
2022/08/18 00:26:47;;;;;;;4.40;4.00;;;;;;;24.79;51.05;99172.47;347526;28;1693;-66
2022/08/18 00:27:00;;;;;;;5.10;3.90;;;;;;;24.80;51.20;99179.47;347640;28;1467;-66
2022/08/18 00:27:12;;;;;;;4.53;3.70;;;;;;;24.78;51.26;99170.81;346476;28;1906;-66
2022/08/18 00:27:28;;;;;;;5.45;3.88;;;;;;;24.78;51.26;99171.63;346494;28;1219;-66
2022/08/18 00:27:40;;;;;;;6.00;4.07;;;;;;;24.79;51.04;99161.84;347916;28;1002;-66
2022/08/18 00:27:52;;;;;;;5.63;4.00;;;;;;;24.79;51.32;99172.47;346916;28;1609;-66
2022/08/18 00:28:04;;;;;;;4.60;4.10;;;;;;;24.78;51.24;99173.47;347803;28;1658;-66
2022/08/18 00:28:16;;;;;;;4.97;4.20;;;;;;;24.78;51.21;99171.63;349092;28;1028;-66
2022/08/18 00:28:28;;;;;;;8.80;4.20;;;;;;;24.78;51.18;99170.81;348090;28;1729;-66
2022/08/18 00:28:40;;;;;;;8.23;4.05;;;;;;;24.79;51.07;99169.81;346778;28;1059;-66
2022/08/18 00:28:53;;;;;;;6.22;4.05;;;;;;;24.77;51.30;99169.13;346998;28;1681;-66
2022/08/18 00:29:05;;;;;;;5.90;4.05;;;;;;;24.76;51.42;99165.66;346809;28;1570;-66
2022/08/18 00:29:17;;;;;;;5.82;4.05;;;;;;;24.75;50.78;99169.31;347296;28;1282;-66
2022/08/18 00:29:29;;;;;;;5.20;4.00;;;;;;;24.74;51.00;99172.94;347133;28;1739;-66
2022/08/18 00:29:41;;;;;;;4.28;3.80;;;;;;;24.73;50.96;99173.94;347922;28;863;-66
2022/08/18 00:29:55;;;;;;;4.65;3.90;;;;;;;24.73;50.92;99168.63;346604;28;2179;-66
2022/08/18 00:30:13;;;;;;;5.30;3.92;;;;;;;24.72;50.95;99172.25;348042;28;921;-66
2022/08/18 00:30:25;;;;;;;4.65;3.95;;;;;;;24.69;50.85;99176.06;346305;28;1108;-66
2022/08/18 00:30:37;;;;;;;4.50;4.10;;;;;;;24.70;50.67;99171.56;346568;28;1622;-66
2022/08/18 00:30:49;;;;;;;4.38;3.97;;;;;;;24.71;50.88;99170.59;346132;28;2240;-66
2022/08/18 00:31:05;;;;;;;4.20;3.80;;;;;;;24.71;50.80;99170.59;346554;28;1370;-66
2022/08/18 00:31:17;;;;;;;5.68;4.07;;;;;;;24.69;51.20;99178.72;347424;28;1054;-66
2022/08/18 00:31:30;;;;;;;5.80;4.30;;;;;;;24.69;50.76;99178.72;349136;28;1061;-66
2022/08/18 00:31:42;;;;;;;5.65;4.22;;;;;;;24.66;51.04;99176.34;349101;28;1077;-66
2022/08/18 00:31:54;;;;;;;5.15;3.95;;;;;;;24.67;51.08;99170.06;347120;28;1778;-66
2022/08/18 00:32:17;;;;;;;4.63;3.85;;;;;;;24.65;51.25;99172.03;347259;28;1466;-66
2022/08/18 00:32:32;;;;;;;5.47;3.97;;;;;;;24.63;51.27;99179.31;346691;28;1782;-66
2022/08/18 00:32:54;;;;;;;5.15;4.05;;;;;;;24.65;51.35;99174.69;347428;28;2049;-66
2022/08/18 00:33:06;;;;;;;6.60;3.90;;;;;;;24.67;51.29;99171.84;348310;28;1877;-66
2022/08/18 00:33:18;;;;;;;7.43;4.07;;;;;;;24.66;51.32;99171.03;349396;28;1057;-66
2022/08/18 00:33:30;;;;;;;7.50;4.13;;;;;;;24.65;51.51;99172.03;349298;28;1176;-66
2022/08/18 00:33:42;;;;;;;5.90;4.30;;;;;;;24.67;51.60;99170.06;349280;28;1057;-66
2022/08/18 00:33:54;;;;;;;5.63;4.20;;;;;;;24.68;51.10;99176.19;347212;28;1753;-66
2022/08/18 00:34:06;;;;;;;5.55;4.22;;;;;;;24.68;51.45;99174.38;347549;28;1878;-66
2022/08/18 00:34:18;;;;;;;4.75;4.20;;;;;;;24.69;51.32;99176.06;348099;28;1047;-66
2022/08/18 00:34:30;;;;;;;4.80;4.18;;;;;;;24.70;51.30;99175.06;349104;28;1340;-66
2022/08/18 00:34:43;;;;;;;5.70;4.13;;;;;;;24.71;51.41;99171.44;348106;28;1790;-66
2022/08/18 00:34:55;;;;;;;5.32;4.10;;;;;;;24.72;51.19;99174.91;346750;28;1870;-66
2022/08/18 00:35:33;;;;;;;4.97;4.20;;;;;;;24.72;50.85;99175.75;347334;28;2056;-66
2022/08/18 00:35:45;;;;;;;4.43;4.03;;;;;;;24.72;50.94;99170.41;346405;28;2061;-66
2022/08/18 00:35:57;;;;;;;5.55;4.18;;;;;;;24.71;51.13;99171.44;347060;28;1683;-66
2022/08/18 00:36:10;;;;;;;8.35;4.32;;;;;;;24.70;51.13;99172.41;347703;28;1026;-66
2022/08/18 00:36:22;;;;;;;8.13;4.40;;;;;;;24.70;51.20;99175.06;346894;28;1735;-65
2022/08/18 00:36:34;;;;;;;7.25;4.25;;;;;;;24.67;51.41;99174.50;346556;28;1680;-66
2022/08/18 00:36:46;;;;;;;4.50;4.07;;;;;;;24.68;51.25;99171.72;347489;28;1709;-66
2022/08/18 00:36:58;;;;;;;4.57;4.05;;;;;;;24.67;51.27;99170.06;347794;28;1852;-66
2022/08/18 00:37:10;;;;;;;4.78;4.00;;;;;;;24.68;51.23;99177.03;347799;28;1220;-66
2022/08/18 00:37:23;;;;;;;4.63;4.07;;;;;;;24.67;51.41;99170.06;348006;28;1077;-66
2022/08/18 00:37:36;;;;;;;4.55;3.92;;;;;;;24.67;51.23;99175.38;347932;28;1197;-66
2022/08/18 00:37:48;;;;;;;5.28;4.10;;;;;;;24.68;51.23;99171.72;347256;28;1735;-66
2022/08/18 00:38:03;;;;;;;4.78;4.05;;;;;;;24.69;50.97;99169.91;347450;28;1475;-66
2022/08/18 00:38:15;;;;;;;4.47;4.03;;;;;;;24.70;51.29;99174.22;346069;28;1067;-67
2022/08/18 00:38:36;;;;;;;4.45;4.03;;;;;;;24.70;51.15;99175.06;347323;28;1563;-65
2022/08/18 00:38:48;;;;;;;4.38;3.97;;;;;;;24.70;51.35;99175.06;347028;28;1871;-66
2022/08/18 00:39:01;;;;;;;4.70;4.05;;;;;;;24.70;51.30;99169.75;347603;28;1493;-66
2022/08/18 00:39:13;;;;;;;6.20;4.22;;;;;;;24.71;51.29;99176.75;346712;28;1094;-66
2022/08/18 00:39:25;;;;;;;6.60;4.20;;;;;;;24.71;51.42;99171.44;346281;28;1746;-66
2022/08/18 00:39:37;;;;;;;5.47;4.20;;;;;;;24.73;51.32;99173.94;346803;28;1885;-66
2022/08/18 00:39:57;;;;;;;5.20;3.92;;;;;;;24.71;51.29;99171.44;345904;28;1600;-66
2022/08/18 00:40:12;;;;;;;4.72;3.92;;;;;;;24.70;51.54;99164.44;346374;28;1665;-66
2022/08/18 00:40:29;;;;;;;4.57;4.18;;;;;;;24.72;51.06;99173.09;345885;28;1150;-66
2022/08/18 00:40:50;;;;;;;4.85;4.38;;;;;;;24.72;51.23;99166.94;344391;28;1641;-66
2022/08/18 00:41:03;;;;;;;5.00;4.50;;;;;;;24.72;51.11;99169.59;344981;28;1936;-66
2022/08/18 00:41:15;;;;;;;4.90;4.40;;;;;;;24.70;51.44;99168.91;345804;28;1278;-66
2022/08/18 00:41:27;;;;;;;4.82;4.32;;;;;;;24.69;51.33;99168.09;346297;28;1269;-66
2022/08/18 00:41:39;;;;;;;5.00;4.28;;;;;;;24.69;51.36;99168.09;347078;28;1050;-66
2022/08/18 00:41:52;;;;;;;4.75;4.25;;;;;;;24.68;51.51;99171.72;347017;28;1685;-65
2022/08/18 00:42:28;;;;;;;4.70;4.20;;;;;;;24.68;51.45;99173.53;347273;28;1273;-66
2022/08/18 00:42:48;;;;;;;5.65;4.00;;;;;;;24.65;51.56;99166.72;347458;28;1083;-66
2022/08/18 00:43:04;;;;;;;5.47;4.30;;;;;;;24.66;51.56;99168.38;348170;28;1526;-65
2022/08/18 00:43:30;;;;;;;4.40;4.00;;;;;;;24.67;51.62;99164.75;346798;28;1539;-66
2022/08/18 00:43:46;;;;;;;4.30;3.90;;;;;;;24.66;51.58;99171.03;346922;28;1762;-66
2022/08/18 00:43:58;;;;;;;4.30;3.90;;;;;;;24.64;51.86;99169.53;347274;28;1740;-66
2022/08/18 00:44:10;;;;;;;4.78;4.30;;;;;;;24.65;51.70;99171.19;348290;28;1093;-66
2022/08/18 00:44:21;;;;;;;5.47;4.30;;;;;;;24.60;51.93;99174.28;349047;28;1081;-66
2022/08/18 00:44:34;;;;;;;5.13;4.10;;;;;;;24.61;51.81;99170.66;349228;28;1021;-65
2022/08/18 00:44:46;;;;;;;4.40;3.97;;;;;;;24.59;51.73;99172.66;348386;28;1765;-66
2022/08/18 00:45:05;;;;;;;4.40;4.00;;;;;;;24.58;51.62;99165.66;347014;28;1422;-66
2022/08/18 00:45:24;;;;;;;4.78;4.30;;;;;;;24.56;51.68;99167.63;347404;28;1062;-66
2022/08/18 00:45:39;;;;;;;5.35;4.22;;;;;;;24.55;51.69;99173.94;347951;28;1002;-66
2022/08/18 00:45:51;;;;;;;4.88;4.15;;;;;;;24.53;52.02;99167.94;347403;28;1836;-66
2022/08/18 00:46:06;;;;;;;4.55;4.05;;;;;;;24.50;52.10;99169.06;347840;28;1696;-67
2022/08/18 00:46:26;;;;;;;4.60;3.97;;;;;;;24.48;52.17;99170.16;349211;28;1026;-66
2022/08/18 00:46:38;;;;;;;4.65;4.18;;;;;;;24.48;52.12;99170.16;349168;28;1328;-66
2022/08/18 00:46:51;;;;;;;4.70;4.20;;;;;;;24.45;52.27;99175.78;346293;28;1727;-66
2022/08/18 00:47:03;;;;;;;4.63;4.13;;;;;;;24.44;52.29;99174.13;347612;28;1591;-66
2022/08/18 00:47:15;;;;;;;4.72;4.10;;;;;;;24.44;52.28;99174.94;349064;28;1191;-66
2022/08/18 00:47:47;;;;;;;4.82;4.30;;;;;;;24.39;52.15;99173.72;348491;28;1719;-66
2022/08/18 00:47:59;;;;;;;5.13;4.25;;;;;;;24.38;52.36;99175.53;346899;28;1815;-66
2022/08/18 00:48:13;;;;;;;4.93;4.35;;;;;;;24.37;52.34;99175.69;348456;28;1094;-66
2022/08/18 00:48:25;;;;;;;4.70;4.20;;;;;;;24.37;52.26;99173.03;347532;28;1547;-66
2022/08/18 00:48:37;;;;;;;4.93;4.10;;;;;;;24.33;52.51;99176.00;348836;28;1065;-66
2022/08/18 00:48:51;;;;;;;5.95;4.30;;;;;;;24.32;52.49;99178.81;347959;28;1872;-66
2022/08/18 00:49:04;;;;;;;5.78;4.40;;;;;;;24.31;52.50;99175.31;347701;28;1665;-65
2022/08/18 00:49:17;;;;;;;4.93;4.35;;;;;;;24.28;52.74;99170.28;349294;28;1197;-66
2022/08/18 00:49:29;;;;;;;4.75;4.25;;;;;;;24.29;52.66;99174.63;349222;28;1240;-65
2022/08/18 00:49:43;;;;;;;4.68;4.22;;;;;;;24.26;52.85;99171.44;349277;28;1054;-66
2022/08/18 00:49:56;;;;;;;4.93;4.43;;;;;;;24.25;52.73;99170.59;346647;28;1867;-66
2022/08/18 00:50:18;;;;;;;5.43;4.40;;;;;;;24.25;52.68;99170.59;347796;28;1292;-66
2022/08/18 00:50:45;;;;;;;5.32;4.22;;;;;;;24.25;52.64;99175.09;347727;28;1321;-66
2022/08/18 00:51:01;;;;;;;5.90;4.25;;;;;;;24.25;52.78;99169.78;347483;28;1716;-66
2022/08/18 00:51:25;;;;;;;4.60;4.13;;;;;;;24.22;52.74;99165.56;348241;28;1059;-66
2022/08/18 00:51:49;;;;;;;4.60;4.20;;;;;;;24.21;53.12;99163.09;348732;28;1051;-65
2022/08/18 00:52:03;;;;;;;5.93;4.50;;;;;;;24.19;53.13;99160.59;347794;28;1517;-66
2022/08/18 00:52:15;;;;;;;5.45;4.30;;;;;;;24.18;52.92;99169.50;346323;28;1275;-66
2022/08/18 00:52:27;;;;;;;4.93;4.20;;;;;;;24.13;53.32;99171.81;345116;28;1070;-66
2022/08/18 00:52:40;;;;;;;4.80;4.40;;;;;;;24.16;52.97;99168.84;344794;28;1043;-66
2022/08/18 00:53:03;;;;;;;4.65;4.25;;;;;;;24.16;52.93;99160.88;344998;28;1770;-66
2022/08/18 00:53:40;;;;;;;4.80;3.88;;;;;;;24.13;53.02;99163.84;345378;28;860;-67
2022/08/18 00:53:57;;;;;;;4.47;4.07;;;;;;;24.10;53.42;99166.78;345119;28;1788;-66
2022/08/18 00:54:14;;;;;;;4.38;3.97;;;;;;;24.10;53.37;99166.78;346156;28;1058;-66
2022/08/18 00:54:29;;;;;;;5.10;4.30;;;;;;;24.08;53.13;99168.75;346505;28;2091;-66
2022/08/18 00:54:44;;;;;;;5.43;4.53;;;;;;;24.08;53.06;99158.94;347419;28;1336;-66
2022/08/18 00:54:56;;;;;;;5.10;4.60;;;;;;;24.09;53.20;99165.13;347982;28;1733;-66
2022/08/18 00:55:09;;;;;;;5.00;4.50;;;;;;;24.08;53.12;99169.56;348940;28;1739;-66
2022/08/18 00:55:23;;;;;;;4.57;4.18;;;;;;;24.08;53.20;99168.75;346590;28;1038;-66
2022/08/18 00:55:37;;;;;;;4.30;3.90;;;;;;;24.07;53.21;99167.09;346133;28;1015;-66
2022/08/18 00:55:59;;;;;;;5.20;4.03;;;;;;;24.08;53.12;99166.91;346561;28;1802;-66
2022/08/18 00:56:17;;;;;;;5.28;4.18;;;;;;;24.09;53.61;99165.13;346630;28;1829;-66
2022/08/18 00:56:36;;;;;;;4.68;4.07;;;;;;;24.05;53.42;99169.88;347538;28;1061;-66
2022/08/18 00:56:54;;;;;;;6.13;4.60;;;;;;;24.05;53.48;99166.41;345626;28;1668;-66
2022/08/18 00:57:07;;;;;;;6.55;4.63;;;;;;;24.06;53.28;99160.09;346987;28;1499;-65
2022/08/18 00:57:23;;;;;;;8.23;4.47;;;;;;;24.02;53.48;99161.38;346181;28;1595;-66
2022/08/18 00:57:35;;;;;;;6.93;4.13;;;;;;;23.99;53.50;99162.50;346141;28;1758;-66
2022/08/18 00:57:51;;;;;;;4.50;4.10;;;;;;;23.87;53.65;99161.88;347280;28;1785;-66
2022/08/18 00:58:09;;;;;;;4.43;4.03;;;;;;;23.85;53.56;99163.84;347944;28;1311;-66
2022/08/18 00:58:28;;;;;;;4.65;3.95;;;;;;;23.88;53.71;99163.53;346064;28;1269;-65
2022/08/18 00:58:45;;;;;;;5.30;4.05;;;;;;;23.90;53.52;99161.59;346301;28;1082;-65
2022/08/18 00:59:04;;;;;;;5.30;4.07;;;;;;;23.95;53.46;99158.47;346511;28;1741;-65
2022/08/18 00:59:25;;;;;;;5.05;4.05;;;;;;;23.98;53.55;99165.31;346127;28;1047;-66
2022/08/18 00:59:52;;;;;;;5.18;4.13;;;;;;;23.94;53.52;99162.09;346449;28;1168;-65
2022/08/18 01:00:10;;;;;;;5.25;3.90;;;;;;;23.98;53.61;99165.31;347735;28;1508;-66
2022/08/18 01:00:22;;;;;;;4.75;3.90;;;;;;;23.97;53.43;99161.00;346538;28;1055;-66
2022/08/18 01:00:36;;;;;;;4.63;4.10;;;;;;;23.99;53.35;99156.38;347108;28;1605;-66
2022/08/18 01:00:50;;;;;;;4.63;4.18;;;;;;;23.98;53.13;99160.81;347744;28;1627;-66
2022/08/18 01:01:05;;;;;;;4.47;4.07;;;;;;;24.00;52.97;99160.69;348414;28;1292;-66
2022/08/18 01:01:24;;;;;;;4.35;3.95;;;;;;;24.02;53.14;99158.72;346022;28;1040;-66
2022/08/18 01:01:40;;;;;;;4.40;4.00;;;;;;;24.03;53.29;99157.75;346480;28;1115;-66
2022/08/18 01:02:01;;;;;;;5.07;4.50;;;;;;;24.03;53.17;99155.91;346550;28;1786;-65
2022/08/18 01:02:34;;;;;;;5.85;4.60;;;;;;;24.04;53.16;99156.75;349021;28;1212;-65
2022/08/18 01:02:54;;;;;;;5.55;4.15;;;;;;;24.03;53.15;99155.09;349050;28;1473;-66
2022/08/18 01:03:13;;;;;;;4.65;4.03;;;;;;;24.04;53.02;99162.06;347548;28;1296;-66
2022/08/18 01:03:27;;;;;;;4.40;4.00;;;;;;;24.03;52.79;99160.41;349140;28;1099;-65
2022/08/18 01:03:42;;;;;;;4.40;4.00;;;;;;;24.03;53.22;99160.41;347512;28;1692;-66
2022/08/18 01:04:01;;;;;;;4.28;3.88;;;;;;;24.03;53.07;99157.75;347706;28;1073;-66
2022/08/18 01:04:21;;;;;;;4.45;3.90;;;;;;;24.04;52.69;99159.41;346615;28;1573;-67
2022/08/18 01:04:41;;;;;;;4.55;3.95;;;;;;;24.06;52.80;99154.78;347666;28;1070;-65
2022/08/18 01:05:00;;;;;;;4.50;4.10;;;;;;;24.08;52.74;99158.13;346810;28;1710;-66
2022/08/18 01:05:23;;;;;;;5.35;4.10;;;;;;;24.06;52.65;99154.78;348658;28;1078;-66
2022/08/18 01:05:42;;;;;;;4.95;3.90;;;;;;;24.06;52.87;99154.78;347743;28;1242;-66
2022/08/18 01:06:10;;;;;;;5.13;4.03;;;;;;;24.07;53.01;99159.13;345890;28;1782;-66
2022/08/18 01:06:48;;;;;;;4.68;4.05;;;;;;;24.08;52.64;99160.78;345576;28;1317;-66
2022/08/18 01:07:24;;;;;;;4.40;4.00;;;;;;;24.09;53.10;99154.50;345063;28;1770;-65
2022/08/18 01:07:44;;;;;;;4.50;3.92;;;;;;;24.08;52.99;99152.81;347483;28;1425;-66
2022/08/18 01:07:56;;;;;;;4.20;3.80;;;;;;;24.09;52.95;99154.50;346802;28;2216;-66
2022/08/18 01:08:13;;;;;;;4.43;3.90;;;;;;;24.10;53.03;99156.16;347329;28;1779;-66
2022/08/18 01:08:27;;;;;;;4.70;4.20;;;;;;;24.09;53.17;99154.50;347523;28;1609;-66
2022/08/18 01:08:40;;;;;;;4.57;4.18;;;;;;;24.11;52.95;99157.84;346509;28;1054;-66
2022/08/18 01:08:54;;;;;;;4.30;3.90;;;;;;;24.12;53.08;99149.69;346657;28;1624;-66
2022/08/18 01:09:07;;;;;;;4.60;3.90;;;;;;;24.14;53.02;99152.22;347453;28;1838;-66
2022/08/18 01:09:21;;;;;;;4.60;3.85;;;;;;;24.15;52.82;99159.22;349301;28;1021;-66
2022/08/18 01:09:33;;;;;;;4.15;3.70;;;;;;;24.16;52.70;99152.91;348008;28;1711;-66
2022/08/18 01:09:50;;;;;;;4.38;3.65;;;;;;;24.18;52.62;99156.25;346338;28;1070;-66
2022/08/18 01:10:04;;;;;;;4.05;3.65;;;;;;;24.20;52.58;99158.75;347477;28;2032;-66
2022/08/18 01:10:19;;;;;;;4.13;3.72;;;;;;;24.20;52.66;99156.94;346588;28;1184;-66
2022/08/18 01:10:32;;;;;;;5.07;3.85;;;;;;;24.20;52.65;99156.94;346795;28;1621;-65
2022/08/18 01:10:44;;;;;;;5.32;3.97;;;;;;;24.18;52.51;99158.91;347426;28;1716;-66
2022/08/18 01:11:01;;;;;;;4.55;4.10;;;;;;;24.18;52.50;99164.22;347231;28;1510;-66
2022/08/18 01:11:13;;;;;;;4.70;4.20;;;;;;;24.19;52.32;99157.09;347173;28;1791;-65
2022/08/18 01:11:25;;;;;;;4.72;4.10;;;;;;;24.18;52.17;99156.25;348860;28;951;-65
2022/08/18 01:11:38;;;;;;;4.85;4.07;;;;;;;24.18;52.27;99153.59;348854;28;1026;-65
2022/08/18 01:11:50;;;;;;;4.78;4.03;;;;;;;24.19;52.44;99165.91;346489;28;1754;-66
2022/08/18 01:12:02;;;;;;;5.20;4.00;;;;;;;24.18;52.17;99164.22;347191;28;1425;-66
2022/08/18 01:12:36;;;;;;;4.63;4.10;;;;;;;24.11;52.40;99163.16;346255;28;1813;-65
2022/08/18 01:12:57;;;;;;;5.03;4.18;;;;;;;24.10;52.51;99166.78;347185;28;2012;-66
2022/08/18 01:13:10;;;;;;;4.53;4.03;;;;;;;24.10;52.61;99161.47;348412;28;1685;-66
2022/08/18 01:13:27;;;;;;;4.18;3.78;;;;;;;24.07;52.77;99159.13;347718;28;1025;-66
2022/08/18 01:13:41;;;;;;;4.10;3.70;;;;;;;24.01;53.20;99162.38;346240;28;1262;-65
2022/08/18 01:13:54;;;;;;;4.15;3.75;;;;;;;24.00;52.69;99156.19;346371;28;2024;-66